Time;durP1;ratioP1;P1;durP2;ratioP2;P2;SDS_P1;SDS_P2;PMS_P1;PMS_P2;Temp;Humidity;BMP_temperature;BMP_pressure;BME280_temperature;BME280_humidity;BME280_pressure;Samples;Min_cycle;Max_cycle;Signal;HPM_P1;HPM_P2
2022/09/20 00:01:34;;;;;;;25.57;15.83;;;9.90;99.90;;;;;;5035196;28;20222;-76
2022/09/20 00:04:03;;;;;;;25.03;15.53;;;9.90;99.90;;;;;;5035180;28;20217;-76
2022/09/20 00:06:32;;;;;;;24.33;15.37;;;9.90;99.90;;;;;;5068392;28;20195;-79
2022/09/20 00:09:01;;;;;;;32.90;16.13;;;10.00;99.90;;;;;;5035052;28;20214;-76
2022/09/20 00:11:30;;;;;;;26.47;16.20;;;9.80;99.90;;;;;;5053065;28;20674;-77
2022/09/20 00:14:00;;;;;;;26.93;15.70;;;9.80;99.90;;;;;;5035180;28;20233;-76
2022/09/20 00:16:30;;;;;;;27.03;16.43;;;9.80;99.90;;;;;;5051834;28;20532;-76
2022/09/20 00:18:59;;;;;;;25.07;16.33;;;9.70;99.90;;;;;;5035312;28;20267;-75
2022/09/20 00:21:35;;;;;;;29.47;16.10;;;9.70;99.90;;;;;;5052438;28;20191;-75
2022/09/20 00:24:02;;;;;;;25.10;16.47;;;9.80;99.90;;;;;;5035001;28;20208;-76
2022/09/20 00:26:29;;;;;;;27.37;16.03;;;9.70;99.90;;;;;;5052679;28;20233;-75
2022/09/20 00:28:57;;;;;;;28.97;17.07;;;9.70;99.90;;;;;;5034797;28;20205;-75
2022/09/20 00:31:24;;;;;;;25.40;15.80;;;9.80;99.90;;;;;;5034565;28;20301;-75
2022/09/20 00:36:39;;;;;;;32.27;16.63;;;9.60;99.90;;;;;;5068056;28;20209;-75
2022/09/20 00:39:09;;;;;;;29.83;16.93;;;9.70;99.90;;;;;;5034566;28;20179;-75
2022/09/20 00:41:36;;;;;;;27.07;17.20;;;9.70;99.90;;;;;;5052694;28;20280;-76
2022/09/20 00:44:43;;;;;;;27.40;16.53;;;9.70;99.90;;;;;;5052682;28;20196;-75
2022/09/20 00:47:25;;;;;;;30.03;17.27;;;9.70;99.90;;;;;;5034847;28;20202;-75
2022/09/20 00:49:57;;;;;;;31.87;18.10;;;9.50;99.90;;;;;;5068359;28;20253;-76
2022/09/20 00:52:25;;;;;;;31.87;18.33;;;9.50;99.90;;;;;;5048112;28;20206;-74
2022/09/20 00:54:55;;;;;;;29.57;18.07;;;9.60;99.90;;;;;;5034479;28;20197;-75
2022/09/20 00:57:22;;;;;;;30.80;18.27;;;9.60;99.90;;;;;;5034492;28;20613;-76
2022/09/20 00:59:51;;;;;;;29.97;17.73;;;9.60;99.90;;;;;;5052552;28;20201;-76
2022/09/20 01:02:23;;;;;;;28.40;17.77;;;9.50;99.90;;;;;;5067711;28;20213;-76
2022/09/20 01:04:51;;;;;;;28.53;18.33;;;9.60;99.90;;;;;;5052131;28;20681;-76
2022/09/20 01:07:23;;;;;;;29.27;18.17;;;9.50;99.90;;;;;;5052164;28;20244;-77
2022/09/20 01:09:51;;;;;;;30.13;18.53;;;9.70;99.90;;;;;;5034337;28;20620;-75
2022/09/20 01:12:26;;;;;;;29.57;17.90;;;9.60;99.90;;;;;;5052228;28;20248;-76
2022/09/20 01:14:54;;;;;;;29.60;17.47;;;9.70;99.90;;;;;;5034268;28;20198;-76
2022/09/20 01:17:25;;;;;;;27.10;17.37;;;9.60;99.90;;;;;;5068220;28;20218;-76
2022/09/20 01:20:28;;;;;;;29.17;17.83;;;9.60;99.90;;;;;;5018218;28;20208;-76
2022/09/20 01:23:16;;;;;;;28.67;17.23;;;9.60;99.90;;;;;;5034541;28;20613;-76
2022/09/20 01:26:07;;;;;;;31.67;18.47;;;9.50;99.90;;;;;;5034253;28;20288;-76
2022/09/20 01:28:35;;;;;;;34.13;17.80;;;9.50;99.90;;;;;;5052333;28;20187;-76
2022/09/20 01:31:23;;;;;;;28.30;17.00;;;9.60;99.90;;;;;;5034536;28;20421;-76
2022/09/20 01:33:57;;;;;;;31.13;18.87;;;9.50;99.90;;;;;;5034783;28;20192;-76
2022/09/20 01:36:45;;;;;;;32.40;19.37;;;9.50;99.90;;;;;;5038068;28;20200;-76
2022/09/20 01:39:34;;;;;;;31.77;18.03;;;9.50;99.90;;;;;;5037708;28;20205;-76
2022/09/20 01:42:06;;;;;;;32.47;18.80;;;9.50;99.90;;;;;;5055625;28;20195;-78
2022/09/20 01:44:52;;;;;;;35.43;20.33;;;9.50;99.90;;;;;;5037878;28;20187;-80
2022/09/20 01:47:31;;;;;;;30.93;18.60;;;9.50;99.90;;;;;;5055736;28;20171;-77
2022/09/20 01:50:00;;;;;;;35.63;20.27;;;9.40;99.90;;;;;;5037555;28;20320;-76
2022/09/20 01:52:49;;;;;;;31.83;18.93;;;9.50;99.90;;;;;;5037404;28;20554;-78
2022/09/20 01:55:58;;;;;;;32.63;18.07;;;9.50;99.90;;;;;;5055430;28;20193;-76
2022/09/20 01:58:35;;;;;;;32.07;18.17;;;9.50;99.90;;;;;;5037272;28;20235;-76
2022/09/20 02:01:25;;;;;;;33.77;19.90;;;9.40;99.90;;;;;;5037366;28;20327;-76
2022/09/20 02:04:04;;;;;;;31.03;18.83;;;9.30;99.90;;;;;;5037303;28;20237;-76
2022/09/20 02:06:56;;;;;;;33.40;19.50;;;9.30;99.90;;;;;;5037335;28;20194;-76
2022/09/20 02:10:01;;;;;;;33.27;18.87;;;9.30;99.90;;;;;;5036988;28;20197;-75
2022/09/20 02:12:39;;;;;;;31.23;18.53;;;9.30;99.90;;;;;;5055079;28;20228;-76
2022/09/20 02:15:43;;;;;;;30.00;18.43;;;9.30;99.90;;;;;;5055068;28;20219;-76
2022/09/20 02:18:36;;;;;;;32.10;18.23;;;9.30;99.90;;;;;;5020518;28;20198;-75
2022/09/20 02:21:14;;;;;;;32.60;18.83;;;9.40;99.90;;;;;;5055106;28;20628;-77
2022/09/20 02:23:58;;;;;;;30.47;17.47;;;9.30;99.90;;;;;;5037044;28;20206;-75
2022/09/20 02:26:36;;;;;;;30.30;19.00;;;9.30;99.90;;;;;;5035373;28;20241;-76
2022/09/20 02:29:34;;;;;;;30.17;18.30;;;9.30;99.90;;;;;;5037128;28;20187;-77
2022/09/20 02:32:39;;;;;;;30.43;17.73;;;9.30;99.90;;;;;;5036759;28;20275;-76
2022/09/20 02:35:09;;;;;;;31.63;18.67;;;9.30;99.90;;;;;;5054623;28;20198;-77
2022/09/20 02:37:44;;;;;;;32.20;19.57;;;9.20;99.90;;;;;;5054763;28;20520;-76
2022/09/20 02:40:48;;;;;;;30.27;18.47;;;9.20;99.90;;;;;;5036567;28;20209;-76
2022/09/20 02:43:33;;;;;;;31.60;18.37;;;9.30;99.90;;;;;;5054490;28;20190;-76
2022/09/20 02:46:29;;;;;;;33.33;18.87;;;9.20;99.90;;;;;;5036748;28;20195;-76
2022/09/20 02:49:01;;;;;;;32.17;19.57;;;9.20;99.90;;;;;;5036574;28;20193;-77
2022/09/20 02:51:42;;;;;;;40.60;20.27;;;9.20;99.90;;;;;;5036384;28;20568;-77
2022/09/20 02:54:29;;;;;;;33.40;19.90;;;9.10;99.90;;;;;;5052914;28;20229;-77
2022/09/20 02:57:11;;;;;;;34.57;19.83;;;9.10;99.90;;;;;;5054508;28;20212;-76
2022/09/20 02:59:51;;;;;;;33.80;20.60;;;9.10;99.90;;;;;;5020133;28;20328;-76
2022/09/20 03:02:52;;;;;;;34.70;20.20;;;9.10;99.90;;;;;;5036410;28;20194;-76
2022/09/20 03:05:24;;;;;;;33.07;19.47;;;9.10;99.90;;;;;;5054202;28;20197;-77
2022/09/20 03:08:14;;;;;;;36.47;20.20;;;9.20;99.90;;;;;;5019343;28;20219;-76
2022/09/20 03:11:07;;;;;;;34.67;19.97;;;9.20;99.90;;;;;;5017228;28;20238;-76
2022/09/20 03:13:56;;;;;;;34.67;19.47;;;9.20;99.90;;;;;;5016392;28;20191;-76
2022/09/20 03:17:09;;;;;;;33.73;19.47;;;9.10;99.90;;;;;;5100637;22;20327;-77
2022/09/20 03:20:12;;;;;;;28.93;18.47;;;9.20;99.90;;;;;;5092888;28;20216;-79
2022/09/20 03:23:12;;;;;;;28.50;18.87;;;9.10;99.90;;;;;;5035296;28;20197;-76
2022/09/20 03:25:46;;;;;;;33.47;19.87;;;9.00;99.90;;;;;;5051473;28;20208;-76
2022/09/20 03:28:36;;;;;;;30.57;18.97;;;9.10;99.90;;;;;;5049528;28;20646;-76
2022/09/20 03:31:18;;;;;;;30.03;19.03;;;9.20;99.90;;;;;;5031699;28;20223;-76
2022/09/20 03:34:06;;;;;;;31.17;19.27;;;9.10;99.90;;;;;;5017288;28;20234;-76
2022/09/20 03:36:39;;;;;;;28.87;18.47;;;9.10;99.90;;;;;;5038910;28;20216;-76
2022/09/20 03:39:40;;;;;;;29.17;18.00;;;9.10;99.90;;;;;;5031256;28;20207;-77
2022/09/20 03:42:20;;;;;;;29.90;18.37;;;9.10;99.90;;;;;;5031321;28;20698;-76
2022/09/20 03:45:22;;;;;;;31.53;18.30;;;9.00;99.90;;;;;;5014689;28;20213;-75
2022/09/20 03:48:00;;;;;;;26.63;17.00;;;9.00;99.90;;;;;;5014942;28;20207;-76
2022/09/20 03:50:49;;;;;;;30.23;18.27;;;9.00;99.90;;;;;;5014690;28;20294;-79
2022/09/20 03:53:29;;;;;;;27.97;18.00;;;9.00;99.90;;;;;;5031146;28;20286;-77
2022/09/20 03:55:59;;;;;;;26.63;17.37;;;9.10;99.90;;;;;;5014971;28;20210;-77
2022/09/20 03:59:01;;;;;;;25.50;17.50;;;9.20;99.90;;;;;;5064621;28;20261;-77
2022/09/20 04:01:47;;;;;;;24.87;15.83;;;9.10;99.90;;;;;;5075554;28;20674;-77
2022/09/20 04:04:48;;;;;;;27.13;16.10;;;9.10;99.90;;;;;;5092193;28;20284;-77
2022/09/20 04:07:53;;;;;;;24.10;16.50;;;9.20;99.90;;;;;;5071311;28;20227;-79
2022/09/20 04:10:52;;;;;;;22.50;15.37;;;9.30;99.90;;;;;;5062745;28;20550;-76
2022/09/20 04:13:35;;;;;;;21.20;15.23;;;9.30;99.90;;;;;;5071784;28;20193;-76
2022/09/20 04:16:12;;;;;;;22.10;14.93;;;9.30;99.90;;;;;;5072993;28;20634;-76
2022/09/20 04:18:57;;;;;;;24.40;15.20;;;9.20;99.90;;;;;;5073218;28;20197;-76
2022/09/20 04:21:33;;;;;;;21.97;15.23;;;9.20;99.90;;;;;;5072378;28;20193;-77
2022/09/20 04:24:35;;;;;;;24.13;15.93;;;9.20;99.90;;;;;;5071378;28;20239;-75
2022/09/20 04:27:11;;;;;;;29.73;16.70;;;9.20;99.90;;;;;;5064490;28;20298;-75
2022/09/20 04:30:17;;;;;;;26.10;16.23;;;9.30;99.90;;;;;;5071632;28;20198;-78
2022/09/20 04:33:34;;;;;;;25.33;15.73;;;9.40;99.90;;;;;;5071518;28;20194;-75
2022/09/20 04:36:34;;;;;;;22.40;16.00;;;9.30;99.90;;;;;;5050651;28;20198;-76
2022/09/20 04:39:13;;;;;;;25.03;15.60;;;9.30;99.90;;;;;;5050493;28;20209;-76
2022/09/20 04:42:17;;;;;;;23.30;16.07;;;9.30;99.90;;;;;;5050354;28;20201;-76
2022/09/20 04:45:11;;;;;;;23.63;15.73;;;9.30;99.90;;;;;;5050407;28;20205;-75
2022/09/20 04:47:55;;;;;;;24.03;15.80;;;9.40;99.90;;;;;;5050421;28;20212;-75
2022/09/20 04:51:06;;;;;;;23.60;15.50;;;9.40;99.90;;;;;;5050334;28;20671;-76
2022/09/20 04:54:17;;;;;;;22.27;15.17;;;9.40;99.90;;;;;;5033714;28;20213;-75
2022/09/20 04:57:16;;;;;;;22.00;14.87;;;9.40;99.90;;;;;;5017354;28;20205;-76
2022/09/20 05:00:08;;;;;;;26.53;16.03;;;9.30;99.90;;;;;;5050183;28;20208;-75
2022/09/20 05:03:02;;;;;;;23.70;16.13;;;9.30;99.90;;;;;;5050343;28;20254;-76
2022/09/20 05:05:32;;;;;;;23.43;14.73;;;9.30;99.90;;;;;;5033645;28;20202;-74
2022/09/20 05:08:26;;;;;;;23.03;15.30;;;9.30;99.90;;;;;;5069267;28;20218;-76
2022/09/20 05:11:39;;;;;;;23.67;15.33;;;9.30;99.90;;;;;;5074876;28;20213;-75
2022/09/20 05:14:39;;;;;;;28.63;18.80;;;9.30;99.90;;;;;;5012828;28;20838;-76
2022/09/20 05:17:06;;;;;;;28.38;17.95;;;9.30;99.90;;;;;;4997015;28;20436;-77
2022/09/20 05:20:36;;;;;;;20.90;14.83;;;9.30;99.90;;;;;;5014165;28;20209;-76
2022/09/20 05:23:33;;;;;;;22.60;16.52;;;9.40;99.90;;;;;;4994797;28;20860;-77
2022/09/20 05:26:26;;;;;;;18.23;13.17;;;9.50;99.90;;;;;;5013183;28;20196;-75
2022/09/20 05:29:02;;;;;;;20.35;15.25;;;9.50;99.90;;;;;;4991220;28;20443;-75
2022/09/20 05:31:57;;;;;;;18.30;12.97;;;9.50;99.90;;;;;;4994007;28;20215;-76
2022/09/20 05:35:02;;;;;;;18.23;12.87;;;9.60;99.90;;;;;;5011265;28;20208;-75
2022/09/20 05:37:47;;;;;;;19.70;15.10;;;9.60;99.90;;;;;;4973290;28;20475;-76
2022/09/20 05:40:44;;;;;;;19.90;13.83;;;9.70;99.90;;;;;;4990468;28;20555;-76
2022/09/20 05:43:26;;;;;;;16.57;11.70;;;9.80;99.90;;;;;;4958847;28;20201;-79
2022/09/20 05:46:21;;;;;;;17.77;12.97;;;9.90;99.90;;;;;;4974190;28;20204;-75
2022/09/20 05:48:59;;;;;;;20.23;12.07;;;9.70;99.90;;;;;;4964468;28;20250;-75
2022/09/20 05:51:51;;;;;;;18.67;12.33;;;9.50;99.90;;;;;;5016617;28;20223;-77
2022/09/20 05:54:27;;;;;;;19.10;12.27;;;9.50;99.90;;;;;;5026744;28;20250;-75
2022/09/20 05:57:06;;;;;;;19.27;12.93;;;9.50;99.90;;;;;;5016493;28;20195;-76
2022/09/20 05:59:41;;;;;;;19.73;13.27;;;9.60;99.90;;;;;;5017343;28;20195;-76
2022/09/20 06:02:41;;;;;;;19.60;12.80;;;9.70;99.90;;;;;;5016940;28;20191;-76
2022/09/20 06:05:19;;;;;;;19.07;12.70;;;9.60;99.90;;;;;;5017376;28;20203;-76
2022/09/20 06:08:17;;;;;;;18.20;12.77;;;9.70;99.90;;;;;;5016836;28;20222;-87
2022/09/20 06:11:13;;;;;;;19.90;12.90;;;9.80;99.90;;;;;;5033217;28;20230;-78
2022/09/20 06:14:03;;;;;;;25.10;12.60;;;9.90;99.90;;;;;;4987773;28;20196;-76
2022/09/20 06:17:10;;;;;;;19.97;12.30;;;10.00;99.90;;;;;;4988261;28;20232;-76
2022/09/20 06:19:56;;;;;;;22.30;13.27;;;10.00;99.90;;;;;;4977052;28;20224;-77
2022/09/20 06:22:36;;;;;;;18.33;12.80;;;9.90;99.90;;;;;;4977400;28;20204;-75
2022/09/20 06:25:09;;;;;;;21.03;13.23;;;9.80;99.90;;;;;;4993663;28;20587;-73
2022/09/20 06:27:51;;;;;;;19.20;12.80;;;9.90;99.90;;;;;;4993477;28;20200;-75
2022/09/20 06:30:33;;;;;;;17.97;12.03;;;9.80;99.90;;;;;;5002214;28;20204;-77
2022/09/20 06:33:14;;;;;;;17.83;12.10;;;9.70;99.90;;;;;;4995515;28;20579;-75
2022/09/20 06:42:00;;;;;;;20.47;13.27;;;9.60;99.90;;;;;;4995606;28;20293;-76
2022/09/20 06:44:27;;;;;;;22.63;13.63;;;9.80;99.90;;;;;;4996275;28;20212;-76
2022/09/20 06:46:53;;;;;;;20.67;13.13;;;9.80;99.90;;;;;;5000797;28;20196;-76
2022/09/20 06:49:22;;;;;;;22.20;12.50;;;9.90;99.90;;;;;;5003122;28;20551;-76
2022/09/20 06:51:49;;;;;;;17.57;11.93;;;9.90;99.90;;;;;;5053088;28;20221;-76
2022/09/20 06:54:19;;;;;;;20.63;12.30;;;10.00;99.90;;;;;;5071360;28;20194;-74
2022/09/20 06:56:48;;;;;;;19.70;12.87;;;10.00;99.90;;;;;;5074143;28;20725;-76
2022/09/20 06:59:15;;;;;;;20.93;13.70;;;10.10;99.90;;;;;;5074315;28;20197;-77
2022/09/20 07:01:42;;;;;;;19.63;12.57;;;10.10;99.90;;;;;;5072946;28;20200;-76
2022/09/20 07:04:09;;;;;;;19.27;13.10;;;10.20;99.90;;;;;;5072347;28;20561;-77
2022/09/20 07:06:38;;;;;;;20.20;12.37;;;10.20;99.90;;;;;;5081101;28;20259;-77
2022/09/20 07:09:06;;;;;;;17.20;12.63;;;10.10;99.90;;;;;;5073705;28;20238;-76
2022/09/20 07:11:33;;;;;;;22.60;12.73;;;10.00;99.90;;;;;;5073804;28;20222;-77
2022/09/20 07:14:01;;;;;;;19.93;12.87;;;10.00;99.90;;;;;;5072443;28;20252;-76
2022/09/20 07:16:28;;;;;;;18.97;12.53;;;9.90;99.90;;;;;;5072271;28;20293;-76
2022/09/20 07:18:55;;;;;;;20.63;12.83;;;10.10;99.90;;;;;;5073588;28;20177;-76
2022/09/20 07:21:23;;;;;;;22.23;13.33;;;10.30;99.90;;;;;;5070699;28;20211;-77
2022/09/20 07:23:50;;;;;;;20.17;13.13;;;10.30;99.90;;;;;;5064849;28;20643;-77
2022/09/20 07:26:37;;;;;;;21.70;12.97;;;10.60;99.90;;;;;;5063531;28;20185;-77
2022/09/20 07:29:06;;;;;;;19.40;12.93;;;10.50;99.90;;;;;;5071736;28;20213;-78
2022/09/20 07:31:33;;;;;;;19.87;12.97;;;10.60;99.90;;;;;;5091950;28;20267;-76
2022/09/20 07:34:00;;;;;;;18.83;12.63;;;10.60;99.90;;;;;;5092435;28;20224;-77
2022/09/20 07:36:28;;;;;;;21.17;13.23;;;10.50;99.90;;;;;;5075226;28;20293;-76
2022/09/20 07:38:55;;;;;;;24.80;13.07;;;10.40;99.90;;;;;;5075977;28;20248;-76
2022/09/20 07:41:22;;;;;;;20.43;12.57;;;10.50;99.90;;;;;;5071930;28;20202;-76
2022/09/20 07:43:49;;;;;;;20.27;12.83;;;10.50;99.90;;;;;;5082301;28;20202;-79
2022/09/20 07:46:20;;;;;;;17.90;12.53;;;10.60;99.90;;;;;;5088110;28;20617;-75
2022/09/20 07:48:47;;;;;;;18.50;12.53;;;10.60;99.90;;;;;;5081094;28;20255;-76
2022/09/20 07:51:14;;;;;;;19.70;12.83;;;10.50;99.90;;;;;;5071983;28;20584;-78
2022/09/20 07:53:45;;;;;;;18.97;13.13;;;10.60;99.90;;;;;;5072027;28;20194;-74
2022/09/20 07:56:14;;;;;;;23.93;14.53;;;10.80;99.90;;;;;;5071542;28;20201;-78
2022/09/20 07:58:42;;;;;;;20.37;13.63;;;10.80;99.90;;;;;;5070230;28;20222;-75
2022/09/20 08:01:11;;;;;;;20.80;13.67;;;10.60;99.90;;;;;;5073984;28;20247;-77
2022/09/20 08:03:39;;;;;;;17.23;13.00;;;10.80;99.90;;;;;;5076770;28;20516;-76
2022/09/20 08:06:08;;;;;;;21.73;14.33;;;10.70;99.90;;;;;;5075599;28;20202;-74
2022/09/20 08:08:37;;;;;;;19.73;13.60;;;10.80;99.90;;;;;;5069279;28;20559;-74
2022/09/20 08:11:05;;;;;;;21.20;13.17;;;11.00;99.90;;;;;;5067509;28;20347;-78
2022/09/20 08:13:44;;;;;;;17.87;13.37;;;11.20;99.90;;;;;;5066577;28;20194;-76
2022/09/20 08:16:31;;;;;;;18.93;13.20;;;11.40;99.90;;;;;;5063671;28;20310;-79
2022/09/20 08:19:01;;;;;;;18.50;11.87;;;11.60;99.90;;;;;;5079421;28;20665;-75
2022/09/20 08:21:31;;;;;;;16.43;11.53;;;11.90;99.90;;;;;;5070589;28;20182;-79
2022/09/20 08:23:59;;;;;;;13.70;10.57;;;12.10;99.90;;;;;;5062544;28;20186;-78
2022/09/20 08:26:36;;;;;;;13.67;10.20;;;12.10;99.90;;;;;;5066836;28;20194;-76
2022/09/20 08:29:04;;;;;;;13.70;10.43;;;12.00;99.90;;;;;;5088626;28;20186;-78
2022/09/20 08:31:35;;;;;;;17.20;11.33;;;11.70;99.90;;;;;;5079141;28;20548;-76
2022/09/20 08:34:05;;;;;;;18.03;11.27;;;11.80;99.90;;;;;;5073965;28;20189;-76
2022/09/20 08:36:34;;;;;;;18.27;12.20;;;12.00;99.90;;;;;;5075202;28;20194;-75
2022/09/20 08:39:03;;;;;;;15.83;10.83;;;12.00;99.90;;;;;;5071934;28;20201;-75
2022/09/20 08:41:55;;;;;;;14.53;11.47;;;11.90;99.90;;;;;;5076626;28;20240;-76
2022/09/20 08:44:33;;;;;;;16.73;11.90;;;12.00;99.90;;;;;;5085420;28;20673;-79
2022/09/20 08:47:16;;;;;;;17.40;12.00;;;12.10;99.90;;;;;;5056006;28;20285;-79
2022/09/20 08:49:43;;;;;;;16.33;11.73;;;12.20;99.90;;;;;;5055852;28;20187;-77
2022/09/20 08:52:22;;;;;;;17.30;12.43;;;12.10;99.90;;;;;;5058302;28;20718;-77
2022/09/20 08:54:49;;;;;;;18.60;12.47;;;12.00;99.90;;;;;;5087091;28;20485;-75
2022/09/20 08:57:19;;;;;;;16.30;11.70;;;11.80;99.90;;;;;;5070185;28;20194;-75
2022/09/20 08:59:47;;;;;;;17.40;11.67;;;11.80;99.90;;;;;;5068136;28;20204;-75
2022/09/20 09:02:17;;;;;;;18.87;13.10;;;11.90;99.90;;;;;;5064051;28;20647;-75
2022/09/20 09:04:45;;;;;;;18.13;12.40;;;12.00;99.90;;;;;;5085924;28;20205;-79
2022/09/20 09:07:14;;;;;;;16.63;12.00;;;12.20;99.90;;;;;;5068823;28;20228;-76
2022/09/20 09:09:46;;;;;;;19.33;13.20;;;12.10;99.90;;;;;;5064962;28;20630;-81
2022/09/20 09:12:22;;;;;;;19.30;13.10;;;12.00;99.90;;;;;;5075468;28;20222;-77
2022/09/20 09:14:53;;;;;;;17.57;12.83;;;11.90;99.90;;;;;;5067526;28;20217;-78
2022/09/20 09:17:23;;;;;;;17.80;12.93;;;12.00;99.90;;;;;;5066036;28;20206;-80
2022/09/20 09:20:17;;;;;;;17.17;12.90;;;12.00;99.90;;;;;;5063674;28;20231;-76
2022/09/20 09:22:44;;;;;;;17.83;12.37;;;12.20;99.90;;;;;;5066801;28;20194;-77
2022/09/20 09:25:20;;;;;;;20.30;14.73;;;12.20;99.90;;;;;;5071274;28;20204;-84
2022/09/20 09:27:55;;;;;;;20.27;14.37;;;12.00;99.90;;;;;;5067014;28;20197;-75
2022/09/20 09:30:28;;;;;;;21.33;15.93;;;12.00;99.90;;;;;;5064497;28;20214;-81
2022/09/20 09:33:20;;;;;;;26.00;18.20;;;12.00;99.90;;;;;;5071143;28;20214;-75
2022/09/20 09:35:58;;;;;;;22.17;16.83;;;12.00;99.90;;;;;;5059563;28;20197;-78
2022/09/20 09:38:35;;;;;;;22.27;16.10;;;12.00;99.90;;;;;;5062457;28;20655;-78
2022/09/20 09:41:07;;;;;;;22.17;16.93;;;11.90;99.90;;;;;;5062961;28;20647;-78
2022/09/20 09:43:39;;;;;;;22.27;17.40;;;11.80;99.90;;;;;;5070181;28;20202;-78
2022/09/20 09:46:25;;;;;;;26.80;19.37;;;11.80;99.90;;;;;;5071508;28;20296;-78
2022/09/20 09:49:11;;;;;;;27.63;18.97;;;11.70;99.90;;;;;;5073663;28;20230;-76
2022/09/20 09:51:42;;;;;;;27.37;20.57;;;11.60;99.90;;;;;;5079074;28;20236;-75
2022/09/20 09:54:18;;;;;;;28.90;21.20;;;11.50;99.90;;;;;;5075334;28;20206;-74
2022/09/20 09:57:19;;;;;;;32.10;21.97;;;11.60;99.90;;;;;;5086440;28;20204;-77
2022/09/20 10:00:31;;;;;;;28.40;20.27;;;11.70;99.90;;;;;;5064512;28;20216;-76
2022/09/20 10:03:26;;;;;;;28.33;20.13;;;11.80;99.90;;;;;;5037836;28;20321;-76
2022/09/20 10:06:11;;;;;;;26.37;19.63;;;11.90;99.90;;;;;;5054366;28;20194;-76
2022/09/20 10:08:59;;;;;;;27.80;20.73;;;11.90;99.90;;;;;;5058521;28;20684;-76
2022/09/20 10:11:45;;;;;;;26.97;19.70;;;11.90;99.90;;;;;;5075048;28;20354;-77
2022/09/20 10:14:42;;;;;;;26.80;19.77;;;11.90;99.90;;;;;;5057401;28;20183;-79
2022/09/20 10:17:27;;;;;;;23.13;19.13;;;11.90;99.90;;;;;;5049680;28;20551;-80
2022/09/20 10:20:16;;;;;;;22.77;18.33;;;11.90;99.90;;;;;;5072014;28;20206;-77
2022/09/20 10:22:57;;;;;;;22.23;17.60;;;11.90;99.90;;;;;;5066504;28;20226;-77
2022/09/20 10:25:50;;;;;;;23.23;18.00;;;11.90;99.90;;;;;;5079684;28;20655;-76
2022/09/20 10:29:01;;;;;;;21.57;17.70;;;11.90;99.90;;;;;;5058852;28;20284;-76
2022/09/20 10:31:56;;;;;;;22.47;17.63;;;12.00;99.90;;;;;;5043510;28;20245;-76
2022/09/20 10:34:40;;;;;;;21.70;16.10;;;12.30;99.90;;;;;;5029710;28;20679;-76
2022/09/20 10:37:26;;;;;;;20.63;16.17;;;12.60;99.90;;;;;;5025358;28;20203;-76
2022/09/20 10:40:05;;;;;;;21.30;15.80;;;12.90;99.90;;;;;;5033844;28;20199;-76
2022/09/20 10:46:13;;;;;;;17.60;14.53;;;14.00;99.90;;;;;;5046821;28;20651;-77
2022/09/20 10:49:23;;;;;;;15.23;12.53;;;14.50;99.90;;;;;;5030797;28;20196;-78
2022/09/20 10:52:15;;;;;;;14.20;11.40;;;14.70;99.90;;;;;;5021918;28;20247;-76
2022/09/20 10:55:03;;;;;;;12.40;10.73;;;14.80;99.90;;;;;;5042349;28;20203;-83
2022/09/20 10:58:25;;;;;;;13.17;10.50;;;14.80;99.90;;;;;;5025843;28;20233;-81
2022/09/20 11:01:00;;;;;;;11.23;10.00;;;14.80;99.90;;;;;;5044536;28;20202;-79
2022/09/20 11:03:57;;;;;;;11.33;10.13;;;15.00;99.90;;;;;;5037420;28;20265;-81
2022/09/20 11:07:01;;;;;;;12.03;9.20;;;15.20;99.90;;;;;;5041199;28;20195;-76
2022/09/20 11:09:39;;;;;;;11.00;9.90;;;15.50;99.90;;;;;;5043982;28;20223;-84
2022/09/20 11:12:28;;;;;;;10.97;9.53;;;15.40;99.90;;;;;;5041009;28;20284;-83
2022/09/20 11:15:14;;;;;;;12.70;10.50;;;15.20;99.90;;;;;;5021384;28;20308;-79
2022/09/20 11:18:05;;;;;;;14.97;9.70;;;15.00;99.90;;;;;;5024781;28;20196;-84
2022/09/20 11:20:46;;;;;;;12.87;10.17;;;14.60;99.90;;;;;;5034362;28;20269;-82
2022/09/20 11:23:23;;;;;;;16.00;9.30;;;14.50;99.90;;;;;;5043989;28;20285;-77
2022/09/20 11:25:55;;;;;;;11.73;9.40;;;14.40;99.90;;;;;;5033328;28;20565;-77
2022/09/20 11:28:47;;;;;;;11.57;8.37;;;14.70;99.90;;;;;;5043836;28;20286;-78
2022/09/20 11:31:23;;;;;;;9.57;7.73;;;15.20;99.90;;;;;;5030157;28;20198;-77
2022/09/20 11:34:14;;;;;;;9.17;7.50;;;15.70;99.90;;;;;;5050647;28;20194;-81
2022/09/20 11:36:57;;;;;;;8.67;7.00;;;16.30;99.90;;;;;;5051568;28;20577;-77
2022/09/20 11:39:45;;;;;;;8.63;6.83;;;16.60;99.90;;;;;;5065050;28;20193;-80
2022/09/20 11:42:17;;;;;;;7.23;6.33;;;16.70;99.90;;;;;;5071278;28;20200;-81
2022/09/20 11:44:45;;;;;;;7.33;5.97;;;16.80;99.90;;;;;;5071584;28;20262;-77
2022/09/20 11:47:41;;;;;;;7.77;5.40;;;17.00;99.90;;;;;;5070096;28;20190;-79
2022/09/20 11:51:02;;;;;;;10.43;5.23;;;17.40;99.90;;;;;;5068035;28;20233;-78
2022/09/20 11:53:53;;;;;;;6.13;4.80;;;17.90;99.90;;;;;;5067814;28;20225;-78
2022/09/20 11:56:23;;;;;;;8.53;4.60;;;18.20;99.90;;;;;;5045528;28;20651;-81
2022/09/20 11:59:03;;;;;;;6.57;5.23;;;18.00;99.90;;;;;;5065504;28;20195;-82
2022/09/20 12:01:35;;;;;;;7.87;5.13;;;16.80;99.90;;;;;;5068007;28;20227;-78
2022/09/20 12:04:11;;;;;;;6.80;5.00;;;16.70;99.90;;;;;;5072997;28;20231;-80
2022/09/20 12:07:35;;;;;;;6.00;3.90;;;17.70;99.90;;;;;;5064310;28;20190;-77
2022/09/20 12:10:25;;;;;;;4.77;3.70;;;18.70;99.90;;;;;;5070385;28;20678;-77
2022/09/20 12:13:04;;;;;;;4.47;3.30;;;19.20;99.90;;;;;;5065888;28;20218;-76
2022/09/20 12:15:37;;;;;;;4.40;3.40;;;20.40;99.90;;;;;;5084866;28;20232;-75
2022/09/20 12:18:29;;;;;;;5.60;3.37;;;19.90;99.90;;;;;;5080705;28;20194;-78
2022/09/20 12:21:00;;;;;;;3.43;3.13;;;19.90;99.90;;;;;;5065901;28;20202;-77
2022/09/20 12:23:39;;;;;;;4.20;3.17;;;20.70;99.90;;;;;;5062740;28;20194;-80
2022/09/20 12:26:21;;;;;;;5.60;3.33;;;20.10;99.90;;;;;;5061356;28;20198;-78
2022/09/20 12:28:58;;;;;;;3.80;3.27;;;19.40;99.90;;;;;;5078928;28;20202;-78
2022/09/20 12:31:37;;;;;;;3.47;2.93;;;19.00;99.90;;;;;;5069514;28;20673;-77
2022/09/20 12:34:08;;;;;;;3.23;2.93;;;18.70;99.90;;;;;;5064036;28;20312;-79
2022/09/20 12:36:42;;;;;;;3.83;3.20;;;18.20;99.90;;;;;;5072646;28;20237;-78
2022/09/20 12:39:17;;;;;;;4.20;3.23;;;17.70;99.90;;;;;;5070344;28;20658;-77
2022/09/20 12:42:04;;;;;;;3.10;2.80;;;17.40;99.90;;;;;;5068851;28;20204;-78
2022/09/20 12:44:38;;;;;;;8.50;3.20;;;17.10;99.90;;;;;;5073344;28;20623;-77
2022/09/20 12:47:19;;;;;;;4.33;3.20;;;17.00;99.90;;;;;;5070917;28;20275;-82
2022/09/20 12:52:49;;;;;;;5.63;2.90;;;17.00;99.90;;;;;;5065930;28;20697;-77
2022/09/20 12:55:28;;;;;;;3.47;2.63;;;17.50;99.90;;;;;;5066844;28;20198;-79
2022/09/20 12:58:18;;;;;;;3.67;2.70;;;17.70;99.90;;;;;;5063471;28;20199;-81
2022/09/20 13:00:58;;;;;;;3.43;2.80;;;17.60;99.90;;;;;;5072877;28;20193;-77
2022/09/20 13:03:30;;;;;;;3.40;2.43;;;17.40;99.90;;;;;;5060822;28;20230;-79
2022/09/20 13:06:08;;;;;;;3.33;2.70;;;17.30;99.90;;;;;;5063893;28;20226;-76
2022/09/20 13:08:46;;;;;;;2.50;2.30;;;17.30;99.90;;;;;;5078411;28;20218;-79
2022/09/20 13:11:16;;;;;;;3.07;2.10;;;17.20;99.90;;;;;;5066882;28;20187;-78
2022/09/20 13:14:05;;;;;;;3.80;2.43;;;17.20;99.90;;;;;;5061010;28;20253;-77
2022/09/20 13:16:49;;;;;;;3.03;2.60;;;17.30;99.90;;;;;;5047201;28;20231;-79
2022/09/20 13:19:33;;;;;;;3.97;2.40;;;17.10;99.90;;;;;;5068156;28;20202;-78
2022/09/20 13:22:04;;;;;;;2.53;2.30;;;17.30;99.90;;;;;;5071136;28;20209;-80
2022/09/20 13:24:36;;;;;;;3.00;2.50;;;17.40;99.90;;;;;;5048405;28;20203;-79
2022/09/20 13:27:21;;;;;;;2.40;2.20;;;17.40;99.90;;;;;;5070329;28;20549;-80
2022/09/20 13:29:48;;;;;;;2.67;1.93;;;17.60;99.90;;;;;;5061336;28;20199;-80
2022/09/20 13:32:40;;;;;;;3.57;2.23;;;17.20;99.90;;;;;;5070677;28;20239;-79
2022/09/20 13:35:20;;;;;;;2.90;2.20;;;17.30;99.90;;;;;;5066827;28;20644;-77
2022/09/20 13:37:52;;;;;;;2.93;2.10;;;17.10;99.90;;;;;;5067234;28;20562;-80
2022/09/20 13:40:21;;;;;;;4.67;2.33;;;16.90;99.90;;;;;;5074675;28;20197;-81
2022/09/20 13:42:50;;;;;;;3.20;2.30;;;16.90;99.90;;;;;;5076856;28;20198;-79
2022/09/20 13:45:20;;;;;;;3.60;2.30;;;16.70;99.90;;;;;;5069270;28;20213;-78
2022/09/20 13:47:50;;;;;;;3.13;2.70;;;16.40;99.90;;;;;;5065297;28;20266;-77
2022/09/20 13:50:26;;;;;;;2.53;2.33;;;16.30;99.90;;;;;;5064104;28;20191;-84
2022/09/20 13:52:57;;;;;;;3.00;2.60;;;15.80;99.90;;;;;;5072648;28;20206;-78
2022/09/20 13:56:01;;;;;;;4.83;2.50;;;15.60;99.90;;;;;;5073118;28;20198;-80
2022/09/20 13:58:30;;;;;;;5.27;3.77;;;15.40;99.90;;;;;;5091182;28;20197;-78
2022/09/20 14:01:23;;;;;;;12.63;3.40;;;15.20;99.90;;;;;;5074593;28;20194;-78
2022/09/20 14:04:25;;;;;;;5.60;3.70;;;15.10;99.90;;;;;;5057321;28;20198;-80